Time;durP1;ratioP1;P1;durP2;ratioP2;P2;SDS_P1;SDS_P2;PMS_P1;PMS_P2;Temp;Humidity;BMP_temperature;BMP_pressure;BME280_temperature;BME280_humidity;BME280_pressure;Samples;Min_cycle;Max_cycle;Signal;HPM_P1;HPM_P2
2022/03/25 00:00:06;;;;;;;47.60;24.50;;;;;;;2.33;49.10;101230.02;130316;1268;112313;-73
2022/03/25 00:03:35;;;;;;;42.80;23.60;;;;;;;2.32;49.23;101228.17;130309;1268;114033;-73
2022/03/25 00:06:38;;;;;;;43.10;22.80;;;;;;;2.30;49.19;101226.33;130296;1268;97997;-72
2022/03/25 00:09:41;;;;;;;42.60;23.40;;;;;;;2.29;49.29;101224.60;130308;1268;97965;-72
2022/03/25 00:12:43;;;;;;;43.50;22.80;;;;;;;2.27;49.33;101220.30;130312;1268;99175;-72
2022/03/25 00:15:46;;;;;;;43.80;23.10;;;;;;;2.25;49.47;101221.65;130330;1268;97991;-71
2022/03/25 00:18:49;;;;;;;45.10;22.80;;;;;;;2.24;49.45;101218.71;130307;1268;99044;-72
2022/03/25 00:21:52;;;;;;;46.50;23.00;;;;;;;2.23;49.52;101215.95;130134;1268;204667;-72
2022/03/25 00:24:55;;;;;;;42.00;23.70;;;;;;;2.23;49.57;101216.98;130346;1268;97975;-74
2022/03/25 00:27:58;;;;;;;47.30;23.70;;;;;;;2.20;49.76;101215.90;130327;1268;99036;-76
2022/03/25 00:31:01;;;;;;;46.60;23.40;;;;;;;2.19;49.82;101215.45;130276;1268;98673;-75
2022/03/25 00:34:05;;;;;;;47.10;25.10;;;;;;;2.17;49.82;101212.19;130380;1268;112376;-72
2022/03/25 00:37:08;;;;;;;45.60;23.70;;;;;;;2.14;49.95;101210.41;130273;1268;98750;-73
2022/03/25 00:40:11;;;;;;;42.60;23.30;;;;;;;2.09;49.95;101209.81;130350;1268;98178;-71
2022/03/25 00:43:14;;;;;;;43.00;23.70;;;;;;;2.07;50.06;101209.88;130190;1268;99081;-71
2022/03/25 00:46:17;;;;;;;44.30;24.10;;;;;;;2.07;50.00;101206.21;130367;1268;112369;-72
2022/03/25 00:49:22;;;;;;;45.40;23.90;;;;;;;2.05;49.97;101203.31;130296;1268;112263;-70
2022/03/25 00:52:24;;;;;;;47.90;25.80;;;;;;;2.00;50.08;101205.31;130277;1268;111257;-71
2022/03/25 00:55:29;;;;;;;44.10;25.40;;;;;;;1.99;50.06;101206.24;130320;1268;112443;-72
2022/03/25 00:58:32;;;;;;;42.90;24.60;;;;;;;1.98;50.25;101204.38;130376;1268;97978;-72
2022/03/25 01:01:35;;;;;;;44.20;25.20;;;;;;;1.95;50.33;101206.06;130364;1268;111527;-73
2022/03/25 01:04:38;;;;;;;50.40;24.90;;;;;;;1.94;50.37;101205.42;130331;1268;98728;-72
2022/03/25 01:07:41;;;;;;;44.30;24.40;;;;;;;1.93;50.41;101208.28;130332;1268;98534;-70
2022/03/25 01:10:43;;;;;;;41.50;24.10;;;;;;;1.91;50.40;101207.69;130390;1268;99197;-72
2022/03/25 01:13:46;;;;;;;48.10;24.70;;;;;;;1.86;50.47;101205.13;130388;1268;97977;-72
2022/03/25 01:16:49;;;;;;;48.30;24.90;;;;;;;1.84;50.62;101202.75;130180;1268;99146;-72
2022/03/25 01:19:51;;;;;;;41.80;23.40;;;;;;;1.83;50.55;101205.80;130314;1268;99175;-73
2022/03/25 01:22:54;;;;;;;44.20;24.50;;;;;;;1.80;50.66;101209.96;130321;1268;99622;-73
2022/03/25 01:25:57;;;;;;;43.50;23.70;;;;;;;1.79;50.78;101208.29;130399;1268;98305;-73
2022/03/25 01:28:59;;;;;;;43.50;23.40;;;;;;;1.78;50.87;101208.84;130292;1268;106756;-72
2022/03/25 01:32:03;;;;;;;42.80;23.30;;;;;;;1.76;50.76;101210.32;130277;1268;98491;-73
2022/03/25 01:35:09;;;;;;;45.00;23.90;;;;;;;1.73;50.82;101207.64;130345;1268;107757;-73
2022/03/25 01:38:13;;;;;;;46.30;24.10;;;;;;;1.72;50.95;101208.95;130241;1268;109167;-74
2022/03/25 01:41:17;;;;;;;46.40;24.20;;;;;;;1.69;51.07;101209.96;130326;1268;108798;-73
2022/03/25 01:44:25;;;;;;;47.20;24.40;;;;;;;1.64;50.98;101215.83;130308;1268;108951;-73
2022/03/25 01:47:29;;;;;;;44.40;24.70;;;;;;;1.60;51.18;101214.77;130423;1268;107722;-73
2022/03/25 01:50:32;;;;;;;44.70;23.10;;;;;;;1.58;51.21;101215.41;130387;1268;109798;-73
2022/03/25 01:53:35;;;;;;;43.60;24.10;;;;;;;1.55;51.27;101215.86;130308;1268;99251;-74
2022/03/25 01:56:39;;;;;;;43.60;23.80;;;;;;;1.54;51.37;101218.21;130310;1268;108841;-74
2022/03/25 01:59:41;;;;;;;50.40;24.50;;;;;;;1.49;51.53;101214.91;130284;1268;98088;-72
2022/03/25 02:02:45;;;;;;;45.70;24.80;;;;;;;1.48;51.74;101212.70;130280;1268;99241;-73
2022/03/25 02:05:49;;;;;;;46.60;24.40;;;;;;;1.46;51.67;101209.98;130304;1268;108782;-72
2022/03/25 02:08:52;;;;;;;48.20;24.60;;;;;;;1.43;51.76;101210.31;130362;1268;108707;-78
2022/03/25 02:11:56;;;;;;;50.00;24.30;;;;;;;1.40;51.87;101215.50;130340;1268;97967;-77
2022/03/25 02:14:59;;;;;;;45.90;24.80;;;;;;;1.34;51.86;101217.56;130287;1268;108662;-77
2022/03/25 02:18:08;;;;;;;45.20;23.70;;;;;;;1.29;51.85;101218.64;130297;1268;99156;-77
2022/03/25 02:21:10;;;;;;;43.30;23.90;;;;;;;1.24;52.01;101224.29;130250;1268;108685;-76
2022/03/25 02:24:14;;;;;;;45.50;24.70;;;;;;;1.27;52.00;101223.63;130350;1268;99070;-71
2022/03/25 02:27:18;;;;;;;44.30;23.70;;;;;;;1.29;52.10;101225.50;130173;1268;107173;-73
2022/03/25 02:30:21;;;;;;;47.30;24.10;;;;;;;1.26;52.02;101224.73;130173;1268;108713;-74
2022/03/25 02:33:25;;;;;;;45.20;24.70;;;;;;;1.25;52.03;101226.56;130354;1268;109376;-72
2022/03/25 02:36:28;;;;;;;47.40;24.60;;;;;;;1.23;52.20;101225.05;130143;1268;98386;-73
2022/03/25 02:39:31;;;;;;;47.70;24.80;;;;;;;1.24;52.28;101228.01;130264;1268;99242;-71
2022/03/25 02:42:34;;;;;;;48.00;24.50;;;;;;;1.22;52.38;101224.90;130321;1268;98139;-71
2022/03/25 02:45:37;;;;;;;46.70;24.20;;;;;;;1.22;52.29;101223.68;130380;1268;98789;-71
2022/03/25 02:48:40;;;;;;;45.40;24.40;;;;;;;1.21;52.45;101222.88;130281;1268;98059;-72
2022/03/25 02:51:42;;;;;;;45.70;24.70;;;;;;;1.16;52.54;101220.45;130129;1268;98125;-72
2022/03/25 02:54:45;;;;;;;46.90;24.40;;;;;;;1.16;52.60;101219.40;130314;1268;99168;-71
2022/03/25 02:57:48;;;;;;;47.00;24.50;;;;;;;1.14;52.52;101218.08;130341;1268;99115;-71
2022/03/25 03:00:50;;;;;;;45.70;23.90;;;;;;;1.12;52.61;101216.80;130267;1268;97987;-72
2022/03/25 03:03:53;;;;;;;46.90;24.60;;;;;;;1.11;52.65;101216.64;130227;1268;99175;-68
2022/03/25 03:06:56;;;;;;;44.60;24.80;;;;;;;1.10;52.75;101216.33;130078;1268;98369;-69
2022/03/25 03:09:58;;;;;;;47.30;24.80;;;;;;;1.08;52.63;101213.77;130057;1268;97981;-69
2022/03/25 03:13:02;;;;;;;44.10;23.40;;;;;;;1.08;52.71;101214.33;130083;1268;98033;-69
2022/03/25 03:16:06;;;;;;;45.20;23.40;;;;;;;1.06;52.76;101213.73;130095;1268;98639;-69
2022/03/25 03:19:09;;;;;;;44.30;23.40;;;;;;;1.04;52.71;101217.16;130144;1268;99822;-70
2022/03/25 03:22:12;;;;;;;45.70;24.20;;;;;;;0.99;52.89;101219.96;130199;1267;97978;-70
2022/03/25 03:25:15;;;;;;;45.00;23.90;;;;;;;0.96;52.92;101221.67;130084;1268;98776;-72
2022/03/25 03:28:18;;;;;;;44.30;24.50;;;;;;;0.93;52.85;101217.78;130337;1267;99220;-72
2022/03/25 03:31:20;;;;;;;44.30;24.10;;;;;;;0.90;53.16;101217.58;130335;1268;98042;-72
2022/03/25 03:34:23;;;;;;;44.80;23.80;;;;;;;0.87;53.19;101219.48;130319;1268;99179;-70
2022/03/25 03:37:26;;;;;;;42.40;22.60;;;;;;;0.82;53.11;101226.19;130054;1268;98055;-69
2022/03/25 03:40:28;;;;;;;43.00;23.10;;;;;;;0.81;53.32;101229.02;130048;1268;99044;-70
2022/03/25 03:43:31;;;;;;;43.50;22.90;;;;;;;0.79;53.05;101229.63;130032;1267;98154;-70
2022/03/25 03:46:34;;;;;;;45.70;22.70;;;;;;;0.77;53.28;101234.23;130027;1268;99200;-70
2022/03/25 03:49:37;;;;;;;42.20;22.40;;;;;;;0.79;53.26;101238.39;130323;1268;97984;-70
2022/03/25 03:52:41;;;;;;;41.70;23.00;;;;;;;0.81;53.18;101242.70;130089;1268;99096;-69
2022/03/25 03:55:43;;;;;;;40.50;21.90;;;;;;;0.78;53.19;101240.34;130133;1268;98404;-68
2022/03/25 03:59:05;;;;;;;38.50;21.30;;;;;;;0.77;53.17;101246.67;130054;1268;99083;-70
2022/03/25 04:02:08;;;;;;;49.30;23.40;;;;;;;0.76;53.18;101245.17;130189;1268;99100;-73
2022/03/25 04:05:11;;;;;;;43.50;22.90;;;;;;;0.73;53.32;101242.65;130363;1268;99147;-71
2022/03/25 04:08:13;;;;;;;43.00;23.90;;;;;;;0.69;53.25;101242.52;130300;1268;97992;-70
2022/03/25 04:11:16;;;;;;;51.80;25.60;;;;;;;0.60;53.32;101242.87;130187;1268;99258;-69
2022/03/25 04:14:19;;;;;;;51.00;25.50;;;;;;;0.57;53.39;101247.52;130101;1268;99718;-71
2022/03/25 04:17:23;;;;;;;46.20;24.70;;;;;;;0.59;53.45;101244.50;130144;1267;98077;-72
2022/03/25 04:20:26;;;;;;;46.40;24.10;;;;;;;0.55;53.80;101241.13;130306;1268;98056;-70
2022/03/25 04:23:29;;;;;;;48.40;24.60;;;;;;;0.54;53.83;101243.11;130308;1268;98423;-70
2022/03/25 04:26:32;;;;;;;45.40;24.30;;;;;;;0.54;53.82;101246.97;130106;1268;98751;-68
2022/03/25 04:29:35;;;;;;;44.80;22.80;;;;;;;0.53;53.82;101245.77;130112;1268;99159;-70
2022/03/25 04:32:37;;;;;;;46.60;23.20;;;;;;;0.53;53.89;101249.30;130113;1268;98783;-69
2022/03/25 04:35:41;;;;;;;45.00;23.10;;;;;;;0.49;53.96;101247.02;130101;1268;99179;-70
2022/03/25 04:38:43;;;;;;;43.50;22.90;;;;;;;0.48;53.88;101247.55;130093;1268;97988;-69
2022/03/25 04:41:46;;;;;;;41.50;22.70;;;;;;;0.47;53.99;101246.03;130072;1267;98758;-72
2022/03/25 04:44:49;;;;;;;46.90;23.20;;;;;;;0.47;54.02;101246.03;130053;1268;99181;-68
2022/03/25 04:47:52;;;;;;;43.70;23.30;;;;;;;0.51;54.07;101247.81;130109;1268;98010;-72
2022/03/25 04:50:55;;;;;;;41.10;22.40;;;;;;;0.55;54.06;101247.98;130282;1268;98065;-71
2022/03/25 04:53:57;;;;;;;46.10;23.10;;;;;;;0.58;54.07;101251.02;130311;1268;97998;-70
2022/03/25 04:57:04;;;;;;;44.10;23.00;;;;;;;0.61;54.12;101247.21;130456;1268;99135;-71
2022/03/25 05:00:10;;;;;;;39.50;21.30;;;;;;;0.64;54.21;101248.46;130261;1268;99066;-73
2022/03/25 05:03:13;;;;;;;40.30;21.60;;;;;;;0.65;54.35;101249.48;130374;1268;97981;-72
2022/03/25 05:06:16;;;;;;;41.70;22.40;;;;;;;0.69;54.25;101251.23;130309;1268;98500;-71
2022/03/25 05:09:18;;;;;;;43.30;23.40;;;;;;;0.74;54.13;101254.36;130407;1268;98050;-73
2022/03/25 05:12:21;;;;;;;42.80;23.00;;;;;;;0.76;54.33;101255.13;130392;1268;99165;-70
2022/03/25 05:15:24;;;;;;;41.70;21.80;;;;;;;0.83;54.23;101257.64;130035;1268;97969;-73
2022/03/25 05:18:26;;;;;;;36.70;19.90;;;;;;;0.91;54.34;101257.30;130318;1268;98443;-72
2022/03/25 05:21:29;;;;;;;37.50;21.00;;;;;;;0.98;54.34;101260.87;130397;1268;99581;-72
2022/03/25 05:24:32;;;;;;;40.40;21.10;;;;;;;1.06;54.42;101260.85;130299;1268;98746;-72
2022/03/25 05:27:44;;;;;;;36.60;21.30;;;;;;;1.13;54.53;101260.57;130263;1268;99149;-70
2022/03/25 05:30:47;;;;;;;39.70;21.40;;;;;;;1.21;54.59;101261.43;130018;1268;98111;-71
2022/03/25 05:33:49;;;;;;;44.00;22.10;;;;;;;1.29;54.51;101261.77;130233;1268;98001;-70
2022/03/25 05:36:52;;;;;;;45.40;23.00;;;;;;;1.38;54.66;101266.82;130245;1268;98735;-70
2022/03/25 05:39:54;;;;;;;45.10;23.50;;;;;;;1.48;54.69;101266.34;130120;1269;98053;-71
2022/03/25 05:42:57;;;;;;;39.60;22.60;;;;;;;1.57;54.83;101270.14;130056;1268;99207;-70
2022/03/25 05:46:00;;;;;;;44.90;22.70;;;;;;;1.68;54.86;101271.58;130084;1268;97998;-71
2022/03/25 05:49:03;;;;;;;42.90;22.30;;;;;;;1.79;54.90;101265.11;130144;1268;99041;-72
2022/03/25 05:52:08;;;;;;;42.40;22.70;;;;;;;1.88;55.02;101262.94;130371;1268;98816;-71
2022/03/25 05:55:12;;;;;;;45.00;22.40;;;;;;;1.96;55.06;101262.72;130029;1268;99204;-71
2022/03/25 05:58:15;;;;;;;42.60;22.70;;;;;;;2.06;55.36;101260.33;130308;1268;98128;-71
2022/03/25 06:01:18;;;;;;;53.20;27.60;;;;;;;2.16;55.16;101260.69;130370;1268;98757;-71
2022/03/25 06:04:20;;;;;;;54.10;26.70;;;;;;;2.28;55.37;101259.58;130350;1268;97995;-71
2022/03/25 06:07:24;;;;;;;45.80;25.50;;;;;;;2.42;55.54;101261.71;130124;1268;97980;-71
2022/03/25 06:10:27;;;;;;;48.30;25.50;;;;;;;2.54;55.56;101267.26;130172;1268;97983;-71
2022/03/25 06:13:30;;;;;;;49.20;27.10;;;;;;;2.62;55.58;101266.16;130392;1268;98416;-70
2022/03/25 06:16:33;;;;;;;55.00;29.70;;;;;;;2.64;55.75;101268.02;130347;1268;98169;-71
2022/03/25 06:19:35;;;;;;;49.20;26.20;;;;;;;2.68;55.84;101270.98;130110;1268;97966;-70
2022/03/25 06:22:39;;;;;;;;;;;;;;;2.75;56.05;101276.40;130197;1268;98206;-70
2022/03/25 06:25:43;;;;;;;51.70;27.60;;;;;;;2.92;56.17;101270.98;130332;1268;98177;-71
2022/03/25 06:28:46;;;;;;;51.20;26.80;;;;;;;3.10;56.60;101268.30;130305;1268;99172;-70
2022/03/25 06:31:48;;;;;;;49.10;26.70;;;;;;;3.31;56.56;101268.98;130106;1268;97992;-71
2022/03/25 06:34:51;;;;;;;44.40;25.90;;;;;;;3.48;56.55;101267.36;130151;1268;99810;-71
2022/03/25 06:37:55;;;;;;;49.40;25.50;;;;;;;3.65;56.13;101266.95;130216;1268;97985;-72
2022/03/25 06:40:59;;;;;;;70.00;35.50;;;;;;;3.84;56.04;101266.27;130301;1267;99182;-74
2022/03/25 06:44:02;;;;;;;284.60;155.10;;;;;;;4.03;56.19;101267.30;130351;1268;99173;-72
2022/03/25 06:47:06;;;;;;;112.70;60.40;;;;;;;4.24;56.09;101267.54;130287;1268;98862;-72
2022/03/25 06:50:13;;;;;;;67.00;34.70;;;;;;;4.44;55.95;101270.10;130342;1268;97965;-72
2022/03/25 06:53:16;;;;;;;66.00;36.10;;;;;;;4.62;55.61;101267.47;130365;1267;99057;-73
2022/03/25 06:56:20;;;;;;;43.10;24.90;;;;;;;4.80;55.23;101267.34;130388;1268;99096;-73
2022/03/25 06:59:24;;;;;;;40.80;24.10;;;;;;;4.97;54.87;101268.92;130373;1268;99269;-72
2022/03/25 07:02:27;;;;;;;38.00;21.60;;;;;;;5.18;54.95;101267.37;130284;1268;97978;-74
2022/03/25 07:05:32;;;;;;;35.10;19.60;;;;;;;5.38;54.55;101268.23;130304;1268;98764;-75
2022/03/25 07:08:38;;;;;;;218.10;107.90;;;;;;;5.56;54.30;101266.23;130347;1267;98074;-75
2022/03/25 07:11:42;;;;;;;81.70;41.50;;;;;;;5.75;54.09;101265.55;130335;1268;97975;-73
2022/03/25 07:14:44;;;;;;;44.70;23.10;;;;;;;5.92;54.01;101267.33;130310;1268;97989;-74
2022/03/25 07:17:47;;;;;;;36.30;20.30;;;;;;;6.08;53.64;101266.16;130551;1268;99259;-75
2022/03/25 07:20:50;;;;;;;40.00;22.40;;;;;;;6.25;53.45;101268.70;130227;1270;98027;-75
2022/03/25 07:23:53;;;;;;;34.00;16.60;;;;;;;6.44;53.18;101269.10;130196;1270;98183;-73
2022/03/25 07:26:56;;;;;;;86.80;54.10;;;;;;;6.63;52.87;101271.19;130194;1270;97976;-74
2022/03/25 07:29:58;;;;;;;68.70;41.30;;;;;;;6.80;52.40;101273.99;130300;1268;99066;-71
2022/03/25 07:33:01;;;;;;;34.20;19.70;;;;;;;6.96;52.16;101275.69;130331;1270;98002;-73
2022/03/25 07:36:05;;;;;;;30.40;17.00;;;;;;;7.10;52.17;101275.10;130313;1270;98021;-75
2022/03/25 07:39:08;;;;;;;28.40;15.80;;;;;;;7.26;52.19;101274.33;130251;1270;99152;-74
2022/03/25 07:42:10;;;;;;;34.00;20.90;;;;;;;7.43;52.04;101268.05;130255;1268;97970;-74
2022/03/25 07:45:14;;;;;;;26.10;15.20;;;;;;;7.60;51.38;101268.61;130380;1267;99837;-75
2022/03/25 07:48:17;;;;;;;26.60;14.10;;;;;;;7.72;51.23;101266.20;130316;1268;98052;-73
2022/03/25 07:51:20;;;;;;;70.70;35.50;;;;;;;7.85;51.02;101267.01;130320;1268;99267;-75
2022/03/25 07:54:23;;;;;;;27.90;14.60;;;;;;;7.99;50.98;101266.50;130293;1267;99095;-75
2022/03/25 07:57:26;;;;;;;23.50;13.50;;;;;;;8.14;50.86;101264.21;130297;1268;98045;-73
2022/03/25 08:00:29;;;;;;;20.90;12.50;;;;;;;8.25;50.53;101266.40;130286;1268;98722;-75
2022/03/25 08:03:32;;;;;;;19.00;11.70;;;;;;;8.36;50.44;101267.91;130252;1268;98744;-74
2022/03/25 08:06:35;;;;;;;31.40;18.40;;;;;;;8.47;50.25;101269.39;130327;1268;97995;-75
2022/03/25 08:09:38;;;;;;;22.10;12.90;;;;;;;8.61;50.13;101267.15;130299;1268;99144;-74
2022/03/25 08:12:40;;;;;;;16.70;10.80;;;;;;;8.71;50.03;101269.38;130381;1268;98568;-74
2022/03/25 08:15:43;;;;;;;22.10;12.30;;;;;;;8.82;49.88;101272.45;130376;1268;99190;-73
2022/03/25 08:18:46;;;;;;;20.20;11.30;;;;;;;8.93;49.51;101272.88;130369;1267;97985;-78
2022/03/25 08:21:49;;;;;;;21.90;12.50;;;;;;;9.01;49.05;101271.69;130509;1268;98735;-74
2022/03/25 08:28:13;;;;;;;17.90;10.20;;;;;;;9.38;48.60;101274.69;130294;1268;97983;-72
2022/03/25 08:31:16;;;;;;;15.80;9.70;;;;;;;9.50;48.76;101273.48;130306;1269;122073;-81
2022/03/25 08:34:19;;;;;;;17.40;10.00;;;;;;;9.56;48.45;101274.90;130379;1268;99158;-73
2022/03/25 08:37:22;;;;;;;60.60;36.70;;;;;;;9.62;48.20;101272.84;130281;1268;97965;-74
2022/03/25 08:40:27;;;;;;;51.30;30.10;;;;;;;9.73;48.09;101271.44;130330;1267;99087;-74
2022/03/25 08:43:30;;;;;;;57.30;33.20;;;;;;;9.86;48.22;101272.02;130268;1268;99093;-72
2022/03/25 08:46:34;;;;;;;21.10;13.20;;;;;;;9.93;47.89;101264.02;130299;1267;97985;-74
2022/03/25 08:49:37;;;;;;;39.60;22.70;;;;;;;10.00;46.76;101258.30;130361;1267;99079;-74
2022/03/25 08:52:40;;;;;;;31.00;18.80;;;;;;;10.12;47.58;101253.20;130382;1268;99002;-74
2022/03/25 08:55:42;;;;;;;34.00;21.60;;;;;;;10.22;47.73;101256.84;130353;1268;99184;-74
2022/03/25 08:58:45;;;;;;;21.00;13.20;;;;;;;10.29;47.35;101255.40;130306;1267;98282;-75
2022/03/25 09:01:48;;;;;;;19.30;11.20;;;;;;;10.35;47.55;101251.17;130525;1268;98951;-73
2022/03/25 09:04:51;;;;;;;38.80;27.80;;;;;;;10.43;47.24;101254.39;130286;1268;97969;-73
2022/03/25 09:07:53;;;;;;;35.30;20.90;;;;;;;10.52;47.03;101250.30;130274;1267;99060;-75
2022/03/25 09:10:57;;;;;;;24.90;14.90;;;;;;;10.61;46.84;101251.27;130518;1267;98770;-75
2022/03/25 09:13:59;;;;;;;23.50;15.20;;;;;;;10.71;46.79;101251.04;130286;1268;98757;-73
2022/03/25 09:17:02;;;;;;;18.40;10.00;;;;;;;10.77;46.51;101251.37;130310;1268;98805;-75
2022/03/25 09:20:08;;;;;;;14.70;9.10;;;;;;;10.89;45.17;101252.66;130491;1268;99140;-75
2022/03/25 09:23:10;;;;;;;16.50;9.50;;;;;;;10.95;46.09;101245.94;130981;1268;98047;-74
2022/03/25 09:26:13;;;;;;;14.10;8.20;;;;;;;11.01;45.81;101247.19;130666;1268;98463;-75
2022/03/25 09:29:16;;;;;;;20.90;11.40;;;;;;;11.10;45.82;101248.77;130682;1268;99200;-74
2022/03/25 09:32:19;;;;;;;16.50;8.00;;;;;;;11.16;45.53;101248.73;130738;1269;97995;-73
2022/03/25 09:35:22;;;;;;;12.70;7.00;;;;;;;11.24;45.21;101247.78;130349;1268;99064;-75
2022/03/25 09:38:25;;;;;;;14.90;8.40;;;;;;;11.30;44.45;101240.40;130319;1270;99155;-74
2022/03/25 09:41:27;;;;;;;12.90;7.10;;;;;;;11.37;44.43;101239.95;130261;1270;99170;-75
2022/03/25 09:44:31;;;;;;;11.70;6.90;;;;;;;11.50;44.32;101236.76;130250;1270;98026;-75
2022/03/25 09:47:34;;;;;;;12.10;7.70;;;;;;;11.62;44.63;101231.96;130793;1268;99161;-74
2022/03/25 09:50:40;;;;;;;16.90;7.90;;;;;;;11.69;44.40;101233.09;130432;1268;99135;-74
2022/03/25 09:53:43;;;;;;;13.40;7.50;;;;;;;11.76;44.29;101228.05;130444;1268;98026;-74
2022/03/25 09:56:48;;;;;;;24.70;12.70;;;;;;;11.84;44.44;101227.14;130365;1268;97918;-75
2022/03/25 09:59:51;;;;;;;14.30;8.20;;;;;;;11.91;44.22;101223.49;130212;1267;98638;-74
2022/03/25 10:02:54;;;;;;;15.20;8.20;;;;;;;11.94;43.82;101228.56;130345;1268;98565;-75
2022/03/25 10:06:01;;;;;;;16.10;8.30;;;;;;;12.05;43.19;101227.11;130337;1268;97966;-76
2022/03/25 10:09:05;;;;;;;13.10;7.80;;;;;;;12.23;41.24;101237.16;130402;1268;99168;-75
2022/03/25 10:12:23;;;;;;;13.70;8.60;;;;;;;12.33;41.47;101227.36;130353;1267;99152;-75
2022/03/25 10:15:28;;;;;;;15.30;8.80;;;;;;;12.42;40.83;101229.44;130363;1268;97985;-75
2022/03/25 10:18:31;;;;;;;12.10;8.20;;;;;;;12.54;41.63;101226.70;130354;1268;99154;-75
2022/03/25 10:21:51;;;;;;;14.40;9.50;;;;;;;12.60;41.82;101224.37;130261;1268;99155;-75
2022/03/25 10:24:53;;;;;;;15.40;9.80;;;;;;;12.72;41.82;101219.69;130365;1267;122458;-74
2022/03/25 10:27:56;;;;;;;14.80;9.50;;;;;;;12.77;42.41;101217.27;130294;1268;97987;-74
2022/03/25 10:31:00;;;;;;;17.60;10.20;;;;;;;12.79;42.61;101215.11;130210;1268;98454;-74
2022/03/25 10:34:03;;;;;;;14.90;9.80;;;;;;;12.85;40.90;101218.46;130354;1268;98669;-74
2022/03/25 10:37:07;;;;;;;18.60;10.90;;;;;;;12.98;40.14;101221.20;130292;1268;98992;-75
2022/03/25 10:40:12;;;;;;;17.40;11.10;;;;;;;13.07;39.52;101217.28;130380;1267;98745;-75
2022/03/25 10:43:15;;;;;;;17.30;11.10;;;;;;;13.15;39.16;101215.05;130279;1269;99153;-75
2022/03/25 10:46:35;;;;;;;21.20;11.10;;;;;;;13.23;40.37;101210.77;130272;1269;99153;-75
2022/03/25 10:49:39;;;;;;;16.80;11.10;;;;;;;13.28;38.03;101217.39;130327;1269;98777;-75
2022/03/25 10:52:42;;;;;;;16.00;9.90;;;;;;;13.35;36.91;101208.94;130302;1270;98659;-76
2022/03/25 10:55:53;;;;;;;19.40;10.50;;;;;;;13.45;37.80;101203.69;130201;1270;99747;-75
2022/03/25 10:58:57;;;;;;;17.00;9.60;;;;;;;13.55;37.80;101210.41;130321;1270;99181;-77
2022/03/25 11:02:02;;;;;;;18.30;10.40;;;;;;;13.60;38.91;101206.02;130379;1270;98064;-76
2022/03/25 11:05:09;;;;;;;23.50;12.20;;;;;;;13.60;36.43;101208.11;130242;1270;98760;-74
2022/03/25 11:08:15;;;;;;;18.40;11.50;;;;;;;13.64;37.00;101204.20;130269;1270;99256;-76
2022/03/25 11:11:19;;;;;;;17.20;10.20;;;;;;;13.71;38.42;101195.61;130375;1270;97987;-75
2022/03/25 11:14:23;;;;;;;21.40;11.40;;;;;;;13.73;37.30;101198.44;130237;1270;98788;-74
2022/03/25 11:17:27;;;;;;;14.30;9.50;;;;;;;13.77;37.82;101192.85;130196;1270;98177;-75
2022/03/25 11:20:30;;;;;;;15.40;10.50;;;;;;;13.80;38.04;101185.84;130250;1270;97963;-79
2022/03/25 11:23:40;;;;;;;17.80;9.70;;;;;;;13.84;37.53;101188.77;130261;1270;98001;-75
2022/03/25 11:26:47;;;;;;;15.00;9.30;;;;;;;13.88;38.23;101184.31;130279;1270;98761;-73
2022/03/25 11:29:54;;;;;;;13.60;8.70;;;;;;;13.89;37.41;101179.02;130357;1270;99159;-75
2022/03/25 11:33:08;;;;;;;14.70;8.20;;;;;;;13.95;35.81;101173.08;130245;1268;99075;-75
2022/03/25 11:36:15;;;;;;;12.40;8.50;;;;;;;14.06;35.03;101174.86;130340;1267;122210;-74
2022/03/25 11:39:21;;;;;;;12.70;9.30;;;;;;;14.14;36.84;101171.15;132055;1267;98060;-75
2022/03/25 11:42:39;;;;;;;18.40;10.40;;;;;;;14.16;35.04;101170.43;130303;1268;97969;-75
2022/03/25 11:45:43;;;;;;;15.60;10.00;;;;;;;14.19;34.48;101166.48;130222;1267;98661;-74
2022/03/25 11:48:45;;;;;;;14.60;9.70;;;;;;;14.24;35.67;101161.38;130246;1268;97971;-74
2022/03/25 11:51:48;;;;;;;17.50;10.30;;;;;;;14.28;35.98;101160.94;130252;1268;99136;-75
2022/03/25 11:54:56;;;;;;;15.70;9.90;;;;;;;14.30;36.51;101160.77;130260;1268;97992;-75
2022/03/25 11:58:14;;;;;;;14.40;9.30;;;;;;;14.28;36.61;101153.79;130400;1268;97959;-74
2022/03/25 12:01:19;;;;;;;15.70;9.50;;;;;;;14.33;36.88;101150.60;130299;1270;98729;-75
2022/03/25 12:04:35;;;;;;;16.70;9.70;;;;;;;14.37;36.79;101152.85;130238;1270;99161;-74
2022/03/25 12:07:38;;;;;;;16.40;9.70;;;;;;;14.42;36.29;101151.51;130248;1270;98761;-74
2022/03/25 12:10:47;;;;;;;17.00;10.20;;;;;;;14.48;36.43;101150.82;130244;1270;97995;-75
2022/03/25 12:14:07;;;;;;;20.80;10.40;;;;;;;14.49;33.78;101151.10;130309;1270;98056;-75
2022/03/25 12:17:22;;;;;;;18.10;10.70;;;;;;;14.44;35.32;101146.46;130266;1270;98770;-75
2022/03/25 12:20:41;;;;;;;15.80;10.60;;;;;;;14.45;35.32;101142.64;130255;1269;99173;-75
2022/03/25 12:23:55;;;;;;;17.40;11.30;;;;;;;14.48;34.93;101142.59;130183;1270;138691;-75
2022/03/25 12:27:02;;;;;;;20.20;11.40;;;;;;;14.52;33.94;101144.70;130250;1269;99178;-74
2022/03/25 12:30:07;;;;;;;21.40;13.50;;;;;;;14.57;35.49;101143.20;130288;1270;99069;-74
2022/03/25 12:33:10;;;;;;;18.50;12.60;;;;;;;14.55;34.91;101136.03;130289;1269;97995;-75
2022/03/25 12:36:14;;;;;;;22.40;13.90;;;;;;;14.56;35.02;101137.24;130360;1269;98251;-75
2022/03/25 12:39:16;;;;;;;21.00;13.10;;;;;;;14.60;35.02;101135.79;130467;1269;99081;-75
2022/03/25 12:42:19;;;;;;;21.10;12.40;;;;;;;14.62;35.78;101130.34;130298;1269;99186;-74
2022/03/25 12:45:28;;;;;;;19.40;12.40;;;;;;;14.62;36.03;101121.54;130304;1270;98864;-74
2022/03/25 12:48:37;;;;;;;20.00;13.00;;;;;;;14.66;34.38;101126.13;130456;1270;98012;-75
2022/03/25 12:51:40;;;;;;;19.20;12.40;;;;;;;14.68;33.88;101120.27;130240;1270;98053;-74
2022/03/25 12:54:43;;;;;;;22.30;12.60;;;;;;;14.67;34.59;101115.83;130235;1270;98050;-73
2022/03/25 12:57:46;;;;;;;19.30;12.80;;;;;;;14.72;34.67;101119.14;130275;1270;98198;-74
2022/03/25 13:00:50;;;;;;;21.80;12.80;;;;;;;14.78;35.26;101113.89;130238;1270;98744;-74
2022/03/25 13:03:54;;;;;;;21.40;12.30;;;;;;;14.76;33.77;101115.48;130102;1270;97979;-74
2022/03/25 13:07:08;;;;;;;18.90;12.70;;;;;;;14.78;34.91;101113.71;130219;1269;98669;-75
2022/03/25 13:10:12;;;;;;;18.00;12.20;;;;;;;14.76;35.02;101102.39;130242;1270;99152;-74
2022/03/25 13:13:15;;;;;;;18.50;11.80;;;;;;;14.76;34.92;101099.55;130233;1270;122040;-74
2022/03/25 13:16:18;;;;;;;21.00;12.40;;;;;;;14.80;34.35;101101.08;130215;1270;97972;-73
2022/03/25 13:19:30;;;;;;;20.40;13.20;;;;;;;14.83;33.75;101106.11;130579;1270;99048;-75
2022/03/25 13:22:32;;;;;;;;;;;;;;;14.84;34.02;101105.18;130331;1270;97980;-73
2022/03/25 13:25:37;;;;;;;21.90;12.70;;;;;;;14.81;33.29;101106.91;130221;1270;98062;-73
2022/03/25 13:28:42;;;;;;;18.70;12.10;;;;;;;14.73;33.05;101103.73;130173;1269;99166;-72
2022/03/25 13:31:50;;;;;;;19.90;12.80;;;;;;;14.73;33.19;101105.35;130204;1270;99061;-73
2022/03/25 13:35:06;;;;;;;17.40;11.20;;;;;;;14.72;33.28;101104.44;130227;1270;99076;-73
2022/03/25 13:38:12;;;;;;;20.10;11.70;;;;;;;14.72;33.87;101094.93;130198;1270;97973;-73
2022/03/25 13:41:16;;;;;;;18.80;12.20;;;;;;;14.74;33.57;101096.46;130270;1270;99164;-73
2022/03/25 13:44:24;;;;;;;19.80;12.80;;;;;;;14.76;33.59;101095.58;130282;1270;99156;-74
2022/03/25 13:47:27;;;;;;;20.70;12.40;;;;;;;14.73;32.11;101093.96;130190;1270;97964;-75
2022/03/25 13:50:30;;;;;;;20.20;12.20;;;;;;;14.71;33.55;101092.52;130235;1270;97995;-77
2022/03/25 13:53:35;;;;;;;23.30;12.00;;;;;;;14.70;33.20;101086.35;130213;1270;99123;-76
2022/03/25 13:56:41;;;;;;;20.70;11.50;;;;;;;14.70;33.17;101087.91;130223;1270;98177;-78